Aérodrome :
LOGIN :

S'inscrire | Disclaimer

   EN    FR    IT 

 










Légende :    VFR   VFR Marginal   IFR   IFR Intensif   IFR Très Intensif
Visi : 
Plafond : 
>= 8 km
>= 3000ft
5 à 8 km
1000 à 3000 ft
1500m à 5 km
500 à 1000 ft
800 à 1500m
200 à 500 ft
< 800m
< 200 ft
Symboles :   Orages  Brouillard  Fortes neiges  Fortes précipitations  Vent > 20 kt
SIGMETs :   Divers  Orages  Givrage  Turbulence  Onde Orograph.  Cendres Volcan.






- Altitude de l'aérodrome : 885 ft
- Code IATA : BAS


LFSB - Bale-Mulhouse

DERNIER METAR :
  • 232300Z 00000KT 4000 BR FEW014 M04/M05 Q1027 TEMPO 2000

METARs EXPIRÉS :
  • 232230Z 00000KT 3000 BR FEW014 M04/M05 Q1027 TEMPO 2000
  • 232200Z 27002KT 4000 BR SCT014 M03/M04 Q1027 TEMPO 2000 BR BKN005
  • 232130Z VRB03KT 4000 BR SCT014 M04/M05 Q1027 TEMPO 2000 BR BKN005
  • 232100Z 33003KT 4000 BR BKN014 M03/M04 Q1027 TEMPO 2000 BR BKN005
  • 232030Z 32003KT 4000 BR BKN015 M02/M03 Q1027 TEMPO 2000 BR BKN005

TAF TAF LFSB
Valide du 23 à 18h jusqu'au 24 à 18h UTC


231700Z 2318/2418 32003KT 6000 SCT016
TEMPO 2318/2324 2000 BR BKN005
BECMG 2409/2411 CAVOK
Météo : +33 3 89 90 31 11



MET'MAP, la Météo Aéronautique d'un coup d'oeil ! - Copyright ORBIFLY Décembre 2007 - Disclaimer

ORBIFLY MET'MAP TEAM :

Programmation & Développement : Alexandra Zaïnal
Sur une idée originale de : Baudouin d'Aumeries
Assistance à la programmation : Marc-Olivier Méhu
Soutien technique & logistique : Manuel Goepfert

Contact : metmap@orbifly.com




SOURCES & CREDITS :

   NOAA